createdAt,value
2018-08-08T00:00:09.774Z,3.80
2018-08-08T00:03:09.209Z,4.20
2018-08-08T00:06:07.330Z,3.97
2018-08-08T00:09:05.570Z,4.07
2018-08-08T00:12:03.873Z,3.90
2018-08-08T00:15:01.912Z,4.43
2018-08-08T00:18:00.085Z,4.23
2018-08-08T00:20:59.272Z,3.90
2018-08-08T00:23:57.628Z,4.30
2018-08-08T00:26:55.817Z,3.90
2018-08-08T00:29:53.801Z,4.27
2018-08-08T00:32:53.056Z,4.20
2018-08-08T00:35:51.093Z,4.20
2018-08-08T00:38:49.166Z,4.00
2018-08-08T00:41:47.937Z,4.23
2018-08-08T00:44:46.751Z,4.30
2018-08-08T00:47:46.349Z,4.57
2018-08-08T00:50:45.252Z,4.63
2018-08-08T00:53:43.853Z,4.80
2018-08-08T00:56:42.543Z,4.50
2018-08-08T00:59:41.797Z,4.60
2018-08-08T01:02:39.984Z,4.90
2018-08-08T01:05:39.472Z,4.63
2018-08-08T01:08:38.274Z,4.87
2018-08-08T01:11:36.297Z,4.67
2018-08-08T01:14:34.421Z,5.03
2018-08-08T01:17:32.510Z,4.53
2018-08-08T01:20:31.458Z,5.30
2018-08-08T01:23:30.486Z,5.20
2018-08-08T01:26:28.592Z,4.83
2018-08-08T01:29:26.802Z,4.43
2018-08-08T01:32:26.109Z,4.60
2018-08-08T01:35:24.246Z,5.10
2018-08-08T01:38:22.233Z,5.03
2018-08-08T01:41:20.681Z,5.13
2018-08-08T01:44:19.972Z,4.60
2018-08-08T01:47:18.246Z,5.10
2018-08-08T01:50:18.632Z,5.37
2018-08-08T01:53:16.624Z,4.73
2018-08-08T01:56:14.886Z,5.10
2018-08-08T01:59:12.820Z,5.10
2018-08-08T02:02:10.860Z,5.00
2018-08-08T02:05:08.939Z,5.30
2018-08-08T02:08:06.928Z,5.07
2018-08-08T02:11:05.109Z,5.70
2018-08-08T02:14:03.169Z,5.57
2018-08-08T02:17:02.221Z,5.57
2018-08-08T02:20:00.447Z,5.43
2018-08-08T02:22:58.629Z,5.80
2018-08-08T02:25:56.717Z,5.60
2018-08-08T02:28:57.139Z,5.77
2018-08-08T02:31:55.305Z,5.70
2018-08-08T02:34:53.535Z,5.57
2018-08-08T02:37:52.110Z,5.63
2018-08-08T02:40:50.191Z,5.50
2018-08-08T02:43:48.459Z,6.00
2018-08-08T02:46:46.413Z,6.30
2018-08-08T02:49:44.756Z,6.33
2018-08-08T02:52:42.612Z,5.77
2018-08-08T02:55:40.666Z,6.20
2018-08-08T02:58:38.512Z,6.40
2018-08-08T03:01:37.733Z,6.43
2018-08-08T03:04:37.925Z,6.57
2018-08-08T03:07:36.404Z,6.23
2018-08-08T03:10:35.589Z,5.97
2018-08-08T03:13:33.922Z,6.80
2018-08-08T03:16:33.204Z,6.67
2018-08-08T03:19:31.655Z,6.33
2018-08-08T03:22:29.645Z,6.70
2018-08-08T03:25:29.062Z,6.03
2018-08-08T03:28:26.692Z,7.10
2018-08-08T03:31:25.349Z,6.10
2018-08-08T03:34:23.137Z,6.97
2018-08-08T03:37:21.669Z,6.67
2018-08-08T03:40:20.893Z,7.30
2018-08-08T03:43:19.134Z,7.03
2018-08-08T03:46:18.117Z,7.27
2018-08-08T03:49:16.208Z,6.67
2018-08-08T03:52:15.486Z,6.73
2018-08-08T03:55:14.786Z,6.77
2018-08-08T03:58:13.953Z,7.07
2018-08-08T04:01:12.398Z,6.83
2018-08-08T04:04:10.166Z,7.30
2018-08-08T04:07:08.154Z,6.83
2018-08-08T04:10:06.289Z,6.80
2018-08-08T04:13:04.634Z,7.33
2018-08-08T04:16:07.631Z,7.77
2018-08-08T04:19:05.972Z,7.00
2018-08-08T04:22:03.957Z,7.70
2018-08-08T04:25:02.148Z,7.13
2018-08-08T04:28:00.336Z,6.73
2018-08-08T04:30:58.604Z,7.40
2018-08-08T04:33:56.774Z,7.03
2018-08-08T04:36:54.899Z,7.43
2018-08-08T04:39:52.876Z,7.47
2018-08-08T04:42:53.336Z,7.63
2018-08-08T04:45:52.349Z,7.40
2018-08-08T04:48:50.376Z,7.07
2018-08-08T04:51:48.597Z,7.10
2018-08-08T04:54:48.015Z,7.30
2018-08-08T04:57:47.033Z,7.77
2018-08-08T05:00:45.262Z,6.77
2018-08-08T05:03:43.726Z,7.23
2018-08-08T05:06:41.864Z,7.20
2018-08-08T05:09:40.013Z,6.80
2018-08-08T05:12:38.251Z,7.90
2018-08-08T05:15:37.174Z,6.57
2018-08-08T05:18:35.405Z,7.90
2018-08-08T05:21:33.665Z,7.33
2018-08-08T05:24:32.284Z,7.30
2018-08-08T05:27:30.885Z,7.33
2018-08-08T05:30:44.686Z,7.30
2018-08-08T05:33:43.292Z,7.07
2018-08-08T05:36:43.218Z,7.23
2018-08-08T05:39:41.858Z,7.70
2018-08-08T05:42:40.271Z,7.40
2018-08-08T05:45:39.399Z,7.90
2018-08-08T05:48:39.336Z,7.33
2018-08-08T05:51:37.688Z,7.83
2018-08-08T05:54:35.662Z,7.53
2018-08-08T05:57:34.512Z,8.07
2018-08-08T06:00:44.472Z,7.87
2018-08-08T06:03:42.496Z,7.70
2018-08-08T06:06:42.334Z,7.97
2018-08-08T06:09:40.457Z,7.83
2018-08-08T06:12:38.776Z,8.13
2018-08-08T06:15:37.092Z,10.27
2018-08-08T06:18:37.337Z,8.10
2018-08-08T06:21:35.272Z,8.83
2018-08-08T06:24:33.623Z,8.70
2018-08-08T06:27:31.794Z,9.00
2018-08-08T06:30:34.869Z,8.63
2018-08-08T06:33:32.730Z,8.93
2018-08-08T06:36:30.892Z,9.27
2018-08-08T06:39:31.988Z,10.73
2018-08-08T06:42:30.390Z,8.93
2018-08-08T06:45:32.389Z,8.60
2018-08-08T06:48:30.585Z,8.80
2018-08-08T06:51:28.815Z,8.17
2018-08-08T06:54:27.326Z,8.10
2018-08-08T06:57:25.181Z,8.60
2018-08-08T07:00:27.734Z,8.47
2018-08-08T07:03:26.440Z,8.57
2018-08-08T07:06:24.484Z,9.23
2018-08-08T07:09:23.394Z,9.80
2018-08-08T07:12:21.872Z,10.70
2018-08-08T07:15:22.059Z,13.37
2018-08-08T07:18:20.136Z,14.93
2018-08-08T07:21:18.367Z,14.00
2018-08-08T07:24:16.586Z,12.90
2018-08-08T07:27:15.221Z,11.43
2018-08-08T07:30:13.305Z,14.80
2018-08-08T07:33:11.410Z,10.43
2018-08-08T07:36:09.288Z,10.50
2018-08-08T07:39:07.158Z,11.57
2018-08-08T07:42:06.755Z,10.67
2018-08-08T07:45:04.681Z,9.20
2018-08-08T07:48:02.997Z,9.73
2018-08-08T07:51:47.365Z,9.20
2018-08-08T07:54:45.630Z,18.70
2018-08-08T07:57:44.534Z,10.37
2018-08-08T08:00:47.813Z,8.98
2018-08-08T08:03:46.042Z,9.50
2018-08-08T08:06:44.316Z,9.13
2018-08-08T08:09:42.081Z,9.27
2018-08-08T08:12:41.843Z,9.20
2018-08-08T08:15:39.909Z,9.17
2018-08-08T08:18:39.413Z,9.07
2018-08-08T08:21:38.276Z,9.23
2018-08-08T08:24:36.615Z,9.20
2018-08-08T08:27:34.444Z,8.90
2018-08-08T08:30:34.443Z,8.30
2018-08-08T08:33:32.498Z,9.30
2018-08-08T08:36:30.472Z,8.93
2018-08-08T08:39:29.604Z,9.93
2018-08-08T08:42:28.014Z,8.90
2018-08-08T08:45:25.981Z,8.80
2018-08-08T08:48:24.225Z,9.07
2018-08-08T08:51:22.282Z,9.20
2018-08-08T08:54:20.500Z,8.90
2018-08-08T08:57:18.622Z,8.17
2018-08-08T09:00:17.280Z,8.67
2018-08-08T09:03:15.193Z,8.27
2018-08-08T09:06:13.662Z,8.87
2018-08-08T09:09:12.985Z,8.43
2018-08-08T09:12:12.221Z,9.23
2018-08-08T09:15:10.350Z,8.30
2018-08-08T09:18:08.416Z,8.67
2018-08-08T09:21:06.774Z,9.00
2018-08-08T09:24:05.260Z,7.87
2018-08-08T09:27:03.379Z,7.63
2018-08-08T09:30:07.341Z,8.73
2018-08-08T09:33:11.789Z,8.80
2018-08-08T09:36:10.805Z,8.70
2018-08-08T09:39:08.840Z,9.10
2018-08-08T09:42:07.385Z,8.03
2018-08-08T09:45:05.839Z,8.43
2018-08-08T09:48:04.075Z,7.80
2018-08-08T09:51:02.225Z,8.90
2018-08-08T09:54:01.830Z,8.37
2018-08-08T09:56:59.938Z,8.10
2018-08-08T09:59:58.270Z,7.80
2018-08-08T10:03:02.737Z,7.90
2018-08-08T10:06:00.629Z,7.67
2018-08-08T10:08:58.869Z,8.20
2018-08-08T10:11:57.353Z,8.20
2018-08-08T10:14:55.884Z,8.63
2018-08-08T10:17:54.396Z,9.50
2018-08-08T10:20:52.533Z,9.37
2018-08-08T10:23:50.513Z,9.13
2018-08-08T10:26:48.644Z,10.43
2018-08-08T10:29:48.054Z,10.13
2018-08-08T10:32:47.218Z,10.20
2018-08-08T10:35:45.540Z,10.77
2018-08-08T10:38:43.285Z,8.93
2018-08-08T10:41:41.892Z,8.40
2018-08-08T10:44:39.873Z,8.53
2018-08-08T10:47:37.955Z,9.97
2018-08-08T10:50:36.305Z,12.67
2018-08-08T10:53:34.481Z,12.50
2018-08-08T10:56:33.757Z,12.33
2018-08-08T10:59:33.571Z,12.90
2018-08-08T11:02:31.720Z,11.63
2018-08-08T11:05:29.907Z,9.60
2018-08-08T11:08:27.946Z,7.70
2018-08-08T11:11:26.348Z,10.65
2018-08-08T11:14:24.461Z,11.90
2018-08-08T11:17:23.365Z,9.15
2018-08-08T11:20:21.474Z,9.53
2018-08-08T11:23:19.705Z,9.73
2018-08-08T11:26:17.927Z,9.33
2018-08-08T11:29:16.985Z,8.83
2018-08-08T11:32:15.176Z,8.80
2018-08-08T11:35:13.294Z,8.60
2018-08-08T11:38:11.180Z,7.83
2018-08-08T11:41:09.361Z,8.38
2018-08-08T11:44:07.812Z,7.28
2018-08-08T11:47:06.033Z,8.13
2018-08-08T11:50:04.254Z,7.50
2018-08-08T11:53:02.332Z,7.67
2018-08-08T11:56:00.636Z,7.20
2018-08-08T11:58:58.839Z,7.72
2018-08-08T12:01:57.054Z,7.37
2018-08-08T12:04:56.009Z,7.08
2018-08-08T12:07:53.959Z,7.78
2018-08-08T12:10:52.118Z,6.40
2018-08-08T12:13:50.167Z,6.60
2018-08-08T12:16:48.345Z,7.00
2018-08-08T12:19:46.366Z,7.10
2018-08-08T12:22:44.704Z,7.00
2018-08-08T12:25:42.726Z,7.47
2018-08-08T12:28:40.866Z,7.42
2018-08-08T12:31:39.743Z,6.80
2018-08-08T12:34:37.999Z,6.75
2018-08-08T12:37:36.465Z,6.47
2018-08-08T12:40:35.570Z,7.24
2018-08-08T12:43:33.616Z,6.53
2018-08-08T12:46:32.225Z,7.10
2018-08-08T12:49:30.757Z,7.08
2018-08-08T12:52:28.901Z,6.80
2018-08-08T12:55:26.812Z,6.75
2018-08-08T12:58:25.093Z,6.75
2018-08-08T13:01:23.276Z,6.78
2018-08-08T13:04:23.590Z,6.95
2018-08-08T13:07:24.777Z,6.55
2018-08-08T13:10:22.698Z,6.37
2018-08-08T13:13:21.237Z,5.97
2018-08-08T13:16:19.640Z,6.42
2018-08-08T13:19:19.064Z,7.08
2018-08-08T13:22:17.142Z,6.72
2018-08-08T13:25:15.182Z,7.85
2018-08-08T13:28:13.076Z,7.45
2018-08-08T13:31:11.184Z,8.00
2018-08-08T13:34:09.370Z,8.48
2018-08-08T13:37:08.207Z,8.08
2018-08-08T13:40:06.433Z,8.43
2018-08-08T13:43:04.192Z,9.68
2018-08-08T13:46:03.193Z,9.25
2018-08-08T13:49:01.069Z,8.65
2018-08-08T13:51:59.388Z,7.50
2018-08-08T13:54:57.900Z,7.03
2018-08-08T13:57:56.196Z,7.60
2018-08-08T14:00:54.246Z,7.47
2018-08-08T14:03:52.328Z,7.42
2018-08-08T14:06:50.445Z,7.70
2018-08-08T14:09:48.706Z,7.42
2018-08-08T14:12:46.887Z,8.05
2018-08-08T14:15:45.149Z,7.20
2018-08-08T14:18:43.749Z,7.10
2018-08-08T14:21:42.005Z,6.40
2018-08-08T14:24:40.229Z,6.25
2018-08-08T14:27:38.504Z,6.60
2018-08-08T14:30:37.213Z,7.17
2018-08-08T14:33:39.796Z,6.60
2018-08-08T14:36:37.818Z,7.25
2018-08-08T14:48:47.644Z,7.15
2018-08-08T14:51:45.908Z,6.10
2018-08-08T14:54:44.416Z,6.60
2018-08-08T14:57:42.475Z,6.78
2018-08-08T15:00:40.324Z,8.08
2018-08-08T15:03:39.589Z,5.80
2018-08-08T15:06:38.992Z,5.97
2018-08-08T15:17:32.079Z,6.50
2018-08-08T15:20:31.314Z,6.30
2018-08-08T15:23:29.615Z,6.70
2018-08-08T15:26:27.747Z,6.45
2018-08-08T15:29:26.494Z,5.75
2018-08-08T15:32:24.378Z,5.47
2018-08-08T15:35:22.728Z,5.50
2018-08-08T15:38:22.551Z,6.10
2018-08-08T15:41:21.089Z,5.22
2018-08-08T15:44:19.708Z,5.72
2018-08-08T15:47:18.292Z,5.15
2018-08-08T15:50:17.538Z,5.50
2018-08-08T15:53:15.613Z,5.53
2018-08-08T15:56:13.876Z,6.08
2018-08-08T15:59:13.068Z,6.10
2018-08-08T16:02:11.333Z,6.08
2018-08-08T16:05:09.978Z,6.65
2018-08-08T16:08:08.978Z,5.80
2018-08-08T16:11:08.352Z,6.17
2018-08-08T16:14:10.504Z,6.60
2018-08-08T16:17:09.229Z,5.70
2018-08-08T16:20:09.124Z,6.42
2018-08-08T16:23:07.554Z,5.65
2018-08-08T16:26:06.868Z,5.62
2018-08-08T16:29:05.406Z,6.10
2018-08-08T16:32:04.361Z,6.05
2018-08-08T16:35:02.173Z,6.08
2018-08-08T16:38:01.160Z,6.35
2018-08-08T16:41:00.437Z,6.37
2018-08-08T16:43:58.499Z,6.28
2018-08-08T16:46:56.840Z,5.80
2018-08-08T16:49:56.320Z,6.17
2018-08-08T16:52:54.897Z,6.60
2018-08-08T16:55:53.382Z,6.65
2018-08-08T16:58:51.829Z,6.12
2018-08-08T17:01:50.015Z,6.60
2018-08-08T17:04:49.617Z,6.15
2018-08-08T17:07:48.948Z,6.03
2018-08-08T17:10:47.867Z,6.00
2018-08-08T17:13:46.972Z,5.95
2018-08-08T17:16:46.481Z,6.05
2018-08-08T17:19:44.833Z,6.50
2018-08-08T17:22:43.386Z,6.78
2018-08-08T17:25:43.152Z,6.70
2018-08-08T17:28:41.940Z,6.37
2018-08-08T17:31:39.833Z,7.25
2018-08-08T17:34:38.599Z,7.78
2018-08-08T17:37:36.449Z,7.75
2018-08-08T17:40:35.243Z,8.53
2018-08-08T17:43:33.284Z,7.83
2018-08-08T17:46:31.298Z,8.43
2018-08-08T17:49:33.993Z,8.70
2018-08-08T17:52:33.594Z,8.88
2018-08-08T17:55:33.846Z,9.33
2018-08-08T17:58:32.310Z,9.03
2018-08-08T18:01:32.352Z,9.17
2018-08-08T18:04:30.676Z,9.53
2018-08-08T18:07:28.629Z,10.33
2018-08-08T18:10:29.105Z,10.17
2018-08-08T18:13:27.200Z,9.83
2018-08-08T18:16:25.651Z,9.43
2018-08-08T18:19:23.468Z,9.90
2018-08-08T18:22:24.320Z,9.68
2018-08-08T18:25:22.968Z,10.17
2018-08-08T18:28:21.573Z,10.20
2018-08-08T18:31:19.532Z,9.73
2018-08-08T18:34:20.563Z,9.60
2018-08-08T18:37:18.880Z,9.33
2018-08-08T18:40:17.436Z,9.30
2018-08-08T18:43:15.564Z,9.90
2018-08-08T18:46:14.022Z,9.50
2018-08-08T18:49:12.347Z,9.73
2018-08-08T18:52:10.741Z,9.43
2018-08-08T18:55:08.537Z,9.10
2018-08-08T18:58:08.452Z,9.70
2018-08-08T19:01:07.216Z,8.93
2018-08-08T19:04:05.353Z,8.73
2018-08-08T19:07:03.624Z,9.50
2018-08-08T19:10:01.932Z,8.70
2018-08-08T19:12:59.962Z,9.20
2018-08-08T19:15:58.391Z,9.27
2018-08-08T19:18:56.722Z,9.50
2018-08-08T19:21:55.098Z,9.00
2018-08-08T19:24:54.033Z,9.23
2018-08-08T19:27:52.479Z,9.00
2018-08-08T19:30:50.403Z,8.53
2018-08-08T19:33:49.069Z,8.40
2018-08-08T19:36:48.212Z,9.10
2018-08-08T19:39:47.683Z,8.60
2018-08-08T19:42:47.097Z,9.50
2018-08-08T19:45:45.561Z,9.23
2018-08-08T19:48:43.522Z,9.37
2018-08-08T19:51:41.796Z,9.83
2018-08-08T19:54:40.035Z,9.07
2018-08-08T19:57:37.800Z,9.90
2018-08-08T20:00:35.900Z,9.47
2018-08-08T20:03:34.452Z,10.13
2018-08-08T20:06:32.785Z,9.63
2018-08-08T20:09:33.157Z,9.67
2018-08-08T20:12:31.490Z,10.03
2018-08-08T20:15:30.561Z,9.87
2018-08-08T20:18:29.456Z,10.27
2018-08-08T20:21:28.108Z,10.20
2018-08-08T20:24:26.307Z,10.53
2018-08-08T20:27:24.734Z,10.37
2018-08-08T20:30:24.258Z,10.50
2018-08-08T20:33:22.702Z,9.97
2018-08-08T20:36:20.634Z,10.53
2018-08-08T20:39:21.517Z,10.40
2018-08-08T20:42:21.928Z,9.80
2018-08-08T20:45:20.203Z,10.20
2018-08-08T20:48:19.497Z,9.77
2018-08-08T20:51:17.901Z,10.27
2018-08-08T20:54:15.869Z,10.47
2018-08-08T20:57:14.332Z,10.00
2018-08-08T21:00:12.205Z,10.10
2018-08-08T21:03:10.223Z,10.07
2018-08-08T21:06:09.028Z,10.37
2018-08-08T21:09:07.000Z,9.63
2018-08-08T21:12:05.286Z,10.65
2018-08-08T21:15:04.443Z,10.03
2018-08-08T21:18:02.339Z,10.57
2018-08-08T21:21:01.593Z,10.47
2018-08-08T21:23:59.574Z,10.23
2018-08-08T21:26:57.473Z,10.20
2018-08-08T21:29:55.594Z,10.40
2018-08-08T21:32:53.656Z,10.33
2018-08-08T21:35:52.468Z,11.10
2018-08-08T21:38:50.512Z,11.20
2018-08-08T21:41:50.580Z,11.03
2018-08-08T21:44:48.460Z,10.87
2018-08-08T21:47:47.313Z,12.00
2018-08-08T21:50:46.435Z,11.73
2018-08-08T21:53:55.590Z,12.03
2018-08-08T21:57:07.713Z,12.00
2018-08-08T22:00:22.665Z,11.77
2018-08-08T22:03:33.752Z,11.43
2018-08-08T22:06:43.831Z,12.03
2018-08-08T22:09:54.160Z,11.90
2018-08-08T22:13:05.391Z,12.20
2018-08-08T22:16:15.850Z,12.50
2018-08-08T22:19:34.311Z,12.20
2018-08-08T22:22:34.713Z,12.53
2018-08-08T22:25:34.032Z,11.77
2018-08-08T22:28:31.814Z,12.90
2018-08-08T22:31:30.006Z,12.67
2018-08-08T22:34:28.097Z,12.70
2018-08-08T22:37:26.241Z,13.27
2018-08-08T22:40:24.424Z,13.30
2018-08-08T22:43:24.803Z,12.63
2018-08-08T22:46:23.512Z,13.13
2018-08-08T22:49:22.076Z,12.53
2018-08-08T22:52:20.421Z,13.90
2018-08-08T22:55:19.623Z,13.53
2018-08-08T22:58:17.979Z,13.37
2018-08-08T23:01:16.555Z,14.33
2018-08-08T23:04:14.493Z,13.60
2018-08-08T23:07:12.781Z,15.13
2018-08-08T23:10:11.137Z,15.27
2018-08-08T23:13:09.445Z,15.83
2018-08-08T23:16:08.516Z,16.30
2018-08-08T23:19:06.660Z,16.13
2018-08-08T23:22:04.803Z,16.07
2018-08-08T23:25:04.926Z,16.63
2018-08-08T23:28:02.694Z,15.37
2018-08-08T23:31:01.048Z,15.77
2018-08-08T23:33:58.906Z,15.33
2018-08-08T23:36:58.310Z,15.53
2018-08-08T23:39:58.019Z,16.67
2018-08-08T23:42:55.965Z,15.77
2018-08-08T23:45:54.230Z,16.60
2018-08-08T23:48:53.927Z,15.47
2018-08-08T23:51:52.721Z,15.57
2018-08-08T23:54:51.350Z,15.30
2018-08-08T23:57:49.649Z,14.67
